sensor_id;sensor_type;location;lat;lon;timestamp;pressure;altitude;pressure_sealevel;temperature;humidity
13050;BME280;6591;51.446;5.404;2022-07-29T00:01:56;101331.75;;;25.25;33.67
13050;BME280;6591;51.446;5.404;2022-07-29T00:04:28;101337.66;;;25.20;33.75
13050;BME280;6591;51.446;5.404;2022-07-29T00:07:00;101338.66;;;25.19;33.86
13050;BME280;6591;51.446;5.404;2022-07-29T00:09:28;101345.97;;;25.19;34.20
13050;BME280;6591;51.446;5.404;2022-07-29T00:12:00;101345.41;;;25.15;34.40
13050;BME280;6591;51.446;5.404;2022-07-29T00:14:29;101340.13;;;25.14;34.14
13050;BME280;6591;51.446;5.404;2022-07-29T00:16:55;101344.88;;;25.12;34.11
13050;BME280;6591;51.446;5.404;2022-07-29T00:19:22;101351.47;;;25.09;33.82
13050;BME280;6591;51.446;5.404;2022-07-29T00:21:50;101357.22;;;25.06;34.41
13050;BME280;6591;51.446;5.404;2022-07-29T00:24:18;101353.06;;;25.02;34.06
13050;BME280;6591;51.446;5.404;2022-07-29T00:26:45;101354.09;;;25.01;34.30
13050;BME280;6591;51.446;5.404;2022-07-29T00:29:12;101352.66;;;24.97;34.36
13050;BME280;6591;51.446;5.404;2022-07-29T00:32:00;101371.69;;;24.97;34.06
13050;BME280;6591;51.446;5.404;2022-07-29T00:34:27;101384.25;;;24.98;34.14
13050;BME280;6591;51.446;5.404;2022-07-29T00:37:17;101406.16;;;24.97;34.34
13050;BME280;6591;51.446;5.404;2022-07-29T00:39:44;101409.19;;;24.94;34.55
13050;BME280;6591;51.446;5.404;2022-07-29T00:42:12;101412.34;;;24.89;35.07
13050;BME280;6591;51.446;5.404;2022-07-29T00:44:41;101391.47;;;24.80;35.46
13050;BME280;6591;51.446;5.404;2022-07-29T00:47:10;101371.78;;;24.59;35.95
13050;BME280;6591;51.446;5.404;2022-07-29T00:49:41;101368.53;;;24.36;36.56
13050;BME280;6591;51.446;5.404;2022-07-29T00:52:10;101361.53;;;24.14;36.86
13050;BME280;6591;51.446;5.404;2022-07-29T00:54:40;101358.13;;;23.93;37.23
13050;BME280;6591;51.446;5.404;2022-07-29T00:57:10;101346.41;;;23.73;37.56
13050;BME280;6591;51.446;5.404;2022-07-29T00:59:38;101331.00;;;23.54;37.84
13050;BME280;6591;51.446;5.404;2022-07-29T01:02:05;101310.69;;;23.39;38.33
13050;BME280;6591;51.446;5.404;2022-07-29T01:04:32;101292.38;;;23.22;39.00
13050;BME280;6591;51.446;5.404;2022-07-29T01:07:03;101273.38;;;23.03;39.60
13050;BME280;6591;51.446;5.404;2022-07-29T01:09:34;101277.44;;;22.88;39.95
13050;BME280;6591;51.446;5.404;2022-07-29T01:12:21;101269.53;;;22.65;40.53
13050;BME280;6591;51.446;5.404;2022-07-29T01:14:52;101276.75;;;22.55;40.46
13050;BME280;6591;51.446;5.404;2022-07-29T01:17:38;101269.25;;;22.38;40.86
13050;BME280;6591;51.446;5.404;2022-07-29T01:26:37;101239.44;;;21.98;42.16
13050;BME280;6591;51.446;5.404;2022-07-29T01:32:18;101230.03;;;21.81;42.91
13050;BME280;6591;51.446;5.404;2022-07-29T01:35:15;101229.56;;;21.76;43.21
13050;BME280;6591;51.446;5.404;2022-07-29T01:38:07;101249.00;;;21.70;43.46
13050;BME280;6591;51.446;5.404;2022-07-29T01:41:05;101263.53;;;21.69;43.28
13050;BME280;6591;51.446;5.404;2022-07-29T01:43:51;101271.75;;;21.68;43.40
13050;BME280;6591;51.446;5.404;2022-07-29T01:46:37;101277.03;;;21.69;43.66
13050;BME280;6591;51.446;5.404;2022-07-29T01:49:11;101276.75;;;21.72;43.64
13050;BME280;6591;51.446;5.404;2022-07-29T01:51:54;101267.94;;;21.70;44.33
13050;BME280;6591;51.446;5.404;2022-07-29T01:54:40;101261.09;;;21.66;44.28
13050;BME280;6591;51.446;5.404;2022-07-29T01:57:15;101256.25;;;21.70;44.67
13050;BME280;6591;51.446;5.404;2022-07-29T01:59:48;101252.69;;;21.69;44.60
13050;BME280;6591;51.446;5.404;2022-07-29T02:02:18;101248.91;;;21.72;44.76
13050;BME280;6591;51.446;5.404;2022-07-29T02:04:49;101248.75;;;21.73;44.96
13050;BME280;6591;51.446;5.404;2022-07-29T02:07:21;101249.47;;;21.75;44.91
13050;BME280;6591;51.446;5.404;2022-07-29T02:09:50;101242.94;;;21.78;45.15
13050;BME280;6591;51.446;5.404;2022-07-29T02:12:25;101244.66;;;21.79;45.10
13050;BME280;6591;51.446;5.404;2022-07-29T02:14:54;101240.97;;;21.80;45.43
13050;BME280;6591;51.446;5.404;2022-07-29T02:17:33;101245.28;;;21.82;45.57
13050;BME280;6591;51.446;5.404;2022-07-29T02:20:09;101253.09;;;21.85;45.31
13050;BME280;6591;51.446;5.404;2022-07-29T02:22:39;101253.84;;;21.87;45.67
13050;BME280;6591;51.446;5.404;2022-07-29T02:25:10;101241.16;;;21.88;45.64
13050;BME280;6591;51.446;5.404;2022-07-29T02:27:41;101245.72;;;21.87;45.55
13050;BME280;6591;51.446;5.404;2022-07-29T02:30:12;101247.41;;;21.88;45.83
13050;BME280;6591;51.446;5.404;2022-07-29T02:32:41;101253.84;;;21.87;45.99
13050;BME280;6591;51.446;5.404;2022-07-29T02:35:15;101248.44;;;21.87;46.02
13050;BME280;6591;51.446;5.404;2022-07-29T02:37:45;101245.72;;;21.87;45.89
13050;BME280;6591;51.446;5.404;2022-07-29T02:40:36;101242.28;;;21.85;45.78
13050;BME280;6591;51.446;5.404;2022-07-29T02:43:06;101245.84;;;21.86;46.08
13050;BME280;6591;51.446;5.404;2022-07-29T02:45:43;101243.28;;;21.84;46.10
13050;BME280;6591;51.446;5.404;2022-07-29T02:48:22;101241.84;;;21.80;46.52
13050;BME280;6591;51.446;5.404;2022-07-29T02:51:06;101244.06;;;21.75;46.74
13050;BME280;6591;51.446;5.404;2022-07-29T02:53:57;101251.19;;;21.76;46.11
13050;BME280;6591;51.446;5.404;2022-07-29T02:56:31;101253.44;;;21.71;46.50
13050;BME280;6591;51.446;5.404;2022-07-29T02:59:30;101259.38;;;21.65;46.73
13050;BME280;6591;51.446;5.404;2022-07-29T03:01:59;101256.66;;;21.65;46.56
13050;BME280;6591;51.446;5.404;2022-07-29T03:04:28;101251.50;;;21.62;46.52
13050;BME280;6591;51.446;5.404;2022-07-29T03:06:59;101241.81;;;21.60;47.03
13050;BME280;6591;51.446;5.404;2022-07-29T03:09:29;101239.34;;;21.56;47.07
13050;BME280;6591;51.446;5.404;2022-07-29T03:11:57;101243.94;;;21.56;47.15
13050;BME280;6591;51.446;5.404;2022-07-29T03:14:25;101245.03;;;21.53;47.14
13050;BME280;6591;51.446;5.404;2022-07-29T03:16:58;101240.78;;;21.51;47.95
13050;BME280;6591;51.446;5.404;2022-07-29T03:19:26;101235.47;;;21.49;47.38
13050;BME280;6591;51.446;5.404;2022-07-29T03:21:57;101238.06;;;21.51;47.84
13050;BME280;6591;51.446;5.404;2022-07-29T03:24:35;101238.19;;;21.49;47.90
13050;BME280;6591;51.446;5.404;2022-07-29T03:27:03;101245.03;;;21.53;47.47
13050;BME280;6591;51.446;5.404;2022-07-29T03:29:33;101245.03;;;21.53;47.79
13050;BME280;6591;51.446;5.404;2022-07-29T03:32:04;101252.88;;;21.56;47.61
13050;BME280;6591;51.446;5.404;2022-07-29T03:34:36;101265.28;;;21.59;47.50
13050;BME280;6591;51.446;5.404;2022-07-29T03:37:05;101258.91;;;21.60;47.63
13050;BME280;6591;51.446;5.404;2022-07-29T03:39:40;101254.47;;;21.59;47.76
13050;BME280;6591;51.446;5.404;2022-07-29T03:42:11;101250.78;;;21.60;47.31
13050;BME280;6591;51.446;5.404;2022-07-29T03:44:45;101236.53;;;21.58;47.63
13050;BME280;6591;51.446;5.404;2022-07-29T03:47:16;101237.66;;;21.55;47.50
13050;BME280;6591;51.446;5.404;2022-07-29T03:49:50;101240.50;;;21.54;47.62
13050;BME280;6591;51.446;5.404;2022-07-29T03:52:21;101236.81;;;21.55;47.73
13050;BME280;6591;51.446;5.404;2022-07-29T03:54:52;101234.34;;;21.52;48.23
13050;BME280;6591;51.446;5.404;2022-07-29T03:57:25;101238.19;;;21.49;48.06
13050;BME280;6591;51.446;5.404;2022-07-29T03:59:56;101243.31;;;21.52;48.01
13050;BME280;6591;51.446;5.404;2022-07-29T04:02:25;101243.19;;;21.54;47.48
13050;BME280;6591;51.446;5.404;2022-07-29T04:04:56;101243.94;;;21.56;47.83
13050;BME280;6591;51.446;5.404;2022-07-29T04:07:23;101237.53;;;21.57;47.71
13050;BME280;6591;51.446;5.404;2022-07-29T04:09:51;101227.56;;;21.58;48.30
13050;BME280;6591;51.446;5.404;2022-07-29T04:12:18;101215.91;;;21.57;48.21
13050;BME280;6591;51.446;5.404;2022-07-29T04:14:46;101217.63;;;21.58;48.65
13050;BME280;6591;51.446;5.404;2022-07-29T04:17:13;101225.72;;;21.58;48.17
13050;BME280;6591;51.446;5.404;2022-07-29T04:19:40;101236.81;;;21.55;48.38
13050;BME280;6591;51.446;5.404;2022-07-29T04:22:08;101246.03;;;21.52;48.24
13050;BME280;6591;51.446;5.404;2022-07-29T04:24:35;101241.28;;;21.45;48.32
13050;BME280;6591;51.446;5.404;2022-07-29T04:27:02;101229.25;;;21.38;48.31
13050;BME280;6591;51.446;5.404;2022-07-29T04:29:33;101232.34;;;21.33;48.38
13050;BME280;6591;51.446;5.404;2022-07-29T04:32:00;101242.56;;;21.30;48.77
13050;BME280;6591;51.446;5.404;2022-07-29T04:34:26;101236.69;;;21.25;48.33
13050;BME280;6591;51.446;5.404;2022-07-29T04:36:55;101224.28;;;21.22;48.47
13050;BME280;6591;51.446;5.404;2022-07-29T04:39:25;101249.72;;;21.20;48.82
13050;BME280;6591;51.446;5.404;2022-07-29T04:42:21;101257.44;;;21.13;48.44
13050;BME280;6591;51.446;5.404;2022-07-29T04:44:54;101265.66;;;21.11;48.91
13050;BME280;6591;51.446;5.404;2022-07-29T04:47:21;101267.63;;;21.09;48.88
13050;BME280;6591;51.446;5.404;2022-07-29T04:49:49;101273.88;;;21.10;48.94
13050;BME280;6591;51.446;5.404;2022-07-29T04:52:16;101277.34;;;21.12;49.18
13050;BME280;6591;51.446;5.404;2022-07-29T04:54:43;101289.75;;;21.14;49.29
13050;BME280;6591;51.446;5.404;2022-07-29T04:57:10;101293.94;;;21.19;48.84
13050;BME280;6591;51.446;5.404;2022-07-29T04:59:38;101291.81;;;21.22;48.74
13050;BME280;6591;51.446;5.404;2022-07-29T05:02:08;101290.59;;;21.26;48.94
13050;BME280;6591;51.446;5.404;2022-07-29T05:04:35;101295.59;;;21.31;49.01
13050;BME280;6591;51.446;5.404;2022-07-29T05:07:02;101293.63;;;21.33;49.27
13050;BME280;6591;51.446;5.404;2022-07-29T05:09:29;101298.06;;;21.34;49.04
13050;BME280;6591;51.446;5.404;2022-07-29T05:11:56;101291.53;;;21.36;49.21
13050;BME280;6591;51.446;5.404;2022-07-29T05:14:23;101298.66;;;21.37;49.04
13050;BME280;6591;51.446;5.404;2022-07-29T05:16:50;101302.81;;;21.41;49.12
13050;BME280;6591;51.446;5.404;2022-07-29T05:19:17;101298.16;;;21.43;49.48
13050;BME280;6591;51.446;5.404;2022-07-29T05:21:46;101301.72;;;21.44;49.45
13050;BME280;6591;51.446;5.404;2022-07-29T05:24:13;101289.78;;;21.46;49.45
13050;BME280;6591;51.446;5.404;2022-07-29T05:26:42;101288.78;;;21.47;49.88
13050;BME280;6591;51.446;5.404;2022-07-29T05:29:10;101294.81;;;21.51;49.74
13050;BME280;6591;51.446;5.404;2022-07-29T05:32:05;101288.41;;;21.52;49.78
13050;BME280;6591;51.446;5.404;2022-07-29T05:34:32;101286.31;;;21.55;49.76
13050;BME280;6591;51.446;5.404;2022-07-29T05:37:15;101290.47;;;21.60;49.69
13050;BME280;6591;51.446;5.404;2022-07-29T05:39:42;101289.22;;;21.64;49.77
13050;BME280;6591;51.446;5.404;2022-07-29T05:42:16;101294.13;;;21.70;49.87
13050;BME280;6591;51.446;5.404;2022-07-29T05:44:43;101292.00;;;21.73;49.73
13050;BME280;6591;51.446;5.404;2022-07-29T05:47:11;101287.91;;;21.79;49.72
13050;BME280;6591;51.446;5.404;2022-07-29T05:49:38;101292.94;;;21.83;49.96
13050;BME280;6591;51.446;5.404;2022-07-29T05:52:05;101285.28;;;21.88;49.90
13050;BME280;6591;51.446;5.404;2022-07-29T05:54:32;101291.16;;;21.93;50.08
13050;BME280;6591;51.446;5.404;2022-07-29T05:56:59;101291.66;;;21.98;49.83
13050;BME280;6591;51.446;5.404;2022-07-29T05:59:26;101296.53;;;22.05;49.60
13050;BME280;6591;51.446;5.404;2022-07-29T06:01:57;101296.13;;;22.09;49.56
13050;BME280;6591;51.446;5.404;2022-07-29T06:04:24;101302.00;;;22.14;49.31
13050;BME280;6591;51.446;5.404;2022-07-29T06:06:51;101294.50;;;22.18;49.26
13050;BME280;6591;51.446;5.404;2022-07-29T06:09:23;101300.50;;;22.21;49.26
13050;BME280;6591;51.446;5.404;2022-07-29T06:11:50;101300.09;;;22.26;49.66
13050;BME280;6591;51.446;5.404;2022-07-29T06:14:18;101300.53;;;22.31;49.39
13050;BME280;6591;51.446;5.404;2022-07-29T06:16:46;101307.28;;;22.36;49.24
13050;BME280;6591;51.446;5.404;2022-07-29T06:19:13;101308.59;;;22.42;49.32
13050;BME280;6591;51.446;5.404;2022-07-29T06:21:44;101299.19;;;22.46;49.55
13050;BME280;6591;51.446;5.404;2022-07-29T06:24:14;101303.09;;;22.53;49.11
13050;BME280;6591;51.446;5.404;2022-07-29T06:26:42;101291.84;;;22.58;48.99
13050;BME280;6591;51.446;5.404;2022-07-29T06:29:11;101296.84;;;22.62;48.95
13050;BME280;6591;51.446;5.404;2022-07-29T06:31:40;101299.16;;;22.67;49.16
13050;BME280;6591;51.446;5.404;2022-07-29T06:34:07;101304.22;;;22.71;48.62
13050;BME280;6591;51.446;5.404;2022-07-29T06:36:36;101302.78;;;22.77;48.78
13050;BME280;6591;51.446;5.404;2022-07-29T06:39:07;101305.38;;;22.78;48.35
13050;BME280;6591;51.446;5.404;2022-07-29T06:41:38;101303.41;;;22.80;48.52
13050;BME280;6591;51.446;5.404;2022-07-29T06:44:09;101305.69;;;22.85;48.83
13050;BME280;6591;51.446;5.404;2022-07-29T06:46:36;101309.13;;;22.87;48.49
13050;BME280;6591;51.446;5.404;2022-07-29T06:49:04;101310.69;;;22.90;48.18
13050;BME280;6591;51.446;5.404;2022-07-29T06:51:33;101310.56;;;22.91;48.19
13050;BME280;6591;51.446;5.404;2022-07-29T06:54:00;101308.56;;;22.93;48.37
13050;BME280;6591;51.446;5.404;2022-07-29T06:56:34;101312.13;;;22.94;47.93
13050;BME280;6591;51.446;5.404;2022-07-29T06:59:10;101306.88;;;22.92;48.31
13050;BME280;6591;51.446;5.404;2022-07-29T07:01:41;101303.13;;;22.93;48.00
13050;BME280;6591;51.446;5.404;2022-07-29T07:04:09;101309.28;;;22.95;47.91
13050;BME280;6591;51.446;5.404;2022-07-29T07:06:37;101315.28;;;22.99;48.06
13050;BME280;6591;51.446;5.404;2022-07-29T07:09:05;101321.41;;;23.01;47.83
13050;BME280;6591;51.446;5.404;2022-07-29T07:11:31;101330.00;;;23.06;48.10
13050;BME280;6591;51.446;5.404;2022-07-29T07:14:02;101324.16;;;23.10;47.86
13050;BME280;6591;51.446;5.404;2022-07-29T07:16:31;101335.88;;;23.20;47.58
13050;BME280;6591;51.446;5.404;2022-07-29T07:18:59;101325.22;;;23.29;48.00
13050;BME280;6591;51.446;5.404;2022-07-29T07:21:27;101326.22;;;23.37;47.71
13050;BME280;6591;51.446;5.404;2022-07-29T07:23:58;101323.69;;;23.45;47.72
13050;BME280;6591;51.446;5.404;2022-07-29T07:26:26;101331.00;;;23.54;47.52
13050;BME280;6591;51.446;5.404;2022-07-29T07:28:54;101328.28;;;23.64;47.44
13050;BME280;6591;51.446;5.404;2022-07-29T07:31:21;101332.84;;;23.73;47.53
13050;BME280;6591;51.446;5.404;2022-07-29T07:33:50;101334.56;;;23.84;47.47
13050;BME280;6591;51.446;5.404;2022-07-29T07:36:18;101336.69;;;23.99;47.21
13050;BME280;6591;51.446;5.404;2022-07-29T07:38:46;101335.00;;;24.18;47.57
13050;BME280;6591;51.446;5.404;2022-07-29T07:41:14;101341.81;;;24.41;47.51
13050;BME280;6591;51.446;5.404;2022-07-29T07:43:41;101342.16;;;24.65;47.21
13050;BME280;6591;51.446;5.404;2022-07-29T07:46:08;101337.09;;;24.89;46.68
13050;BME280;6591;51.446;5.404;2022-07-29T07:48:40;101330.09;;;25.14;46.23
13050;BME280;6591;51.446;5.404;2022-07-29T07:51:07;101339.56;;;25.38;45.69
13050;BME280;6591;51.446;5.404;2022-07-29T07:53:34;101336.41;;;25.60;45.25
13050;BME280;6591;51.446;5.404;2022-07-29T07:56:01;101335.28;;;25.80;45.25
13050;BME280;6591;51.446;5.404;2022-07-29T07:58:39;101337.34;;;26.04;45.11
13050;BME280;6591;51.446;5.404;2022-07-29T08:01:08;101337.41;;;26.30;44.98
13050;BME280;6591;51.446;5.404;2022-07-29T08:03:35;101335.88;;;26.53;45.07
13050;BME280;6591;51.446;5.404;2022-07-29T08:06:03;101345.06;;;26.78;44.97
13050;BME280;6591;51.446;5.404;2022-07-29T08:08:31;101345.75;;;27.06;44.86
13050;BME280;6591;51.446;5.404;2022-07-29T08:10:58;101338.34;;;27.32;44.57
13050;BME280;6591;51.446;5.404;2022-07-29T08:13:32;101338.78;;;27.61;43.93
13050;BME280;6591;51.446;5.404;2022-07-29T08:15:59;101342.19;;;27.79;43.42
13050;BME280;6591;51.446;5.404;2022-07-29T08:18:30;101341.53;;;27.94;43.51
13050;BME280;6591;51.446;5.404;2022-07-29T08:20:58;101344.59;;;28.07;42.90
13050;BME280;6591;51.446;5.404;2022-07-29T08:23:26;101350.44;;;28.20;43.05
13050;BME280;6591;51.446;5.404;2022-07-29T08:26:14;101341.38;;;28.36;42.75
13050;BME280;6591;51.446;5.404;2022-07-29T08:28:44;101353.16;;;28.52;42.48
13050;BME280;6591;51.446;5.404;2022-07-29T08:31:17;101343.38;;;28.66;42.74
13050;BME280;6591;51.446;5.404;2022-07-29T08:33:44;101344.88;;;28.85;42.73
13050;BME280;6591;51.446;5.404;2022-07-29T08:36:12;101342.25;;;29.08;42.21
13050;BME280;6591;51.446;5.404;2022-07-29T08:38:46;101340.78;;;29.28;41.78
13050;BME280;6591;51.446;5.404;2022-07-29T08:41:13;101341.09;;;29.41;41.07
13050;BME280;6591;51.446;5.404;2022-07-29T08:43:40;101346.31;;;29.51;41.03
13050;BME280;6591;51.446;5.404;2022-07-29T08:46:07;101354.84;;;29.56;40.34
13050;BME280;6591;51.446;5.404;2022-07-29T08:48:36;101360.97;;;29.58;39.97
13050;BME280;6591;51.446;5.404;2022-07-29T08:51:06;101359.09;;;29.58;39.85
13050;BME280;6591;51.446;5.404;2022-07-29T08:53:42;101347.91;;;29.68;39.76
13050;BME280;6591;51.446;5.404;2022-07-29T08:56:14;101350.53;;;29.84;39.94
13050;BME280;6591;51.446;5.404;2022-07-29T08:58:49;101343.47;;;29.98;39.77
13050;BME280;6591;51.446;5.404;2022-07-29T09:01:24;101344.53;;;30.11;38.86
13050;BME280;6591;51.446;5.404;2022-07-29T09:04:08;101340.63;;;30.28;39.06
13050;BME280;6591;51.446;5.404;2022-07-29T09:06:43;101352.28;;;30.45;39.15
13050;BME280;6591;51.446;5.404;2022-07-29T09:09:12;101351.09;;;30.62;38.42
13050;BME280;6591;51.446;5.404;2022-07-29T09:11:41;101349.03;;;30.79;38.71
13050;BME280;6591;51.446;5.404;2022-07-29T09:14:12;101344.19;;;30.96;38.22
13050;BME280;6591;51.446;5.404;2022-07-29T09:16:50;101356.63;;;31.06;37.79
13050;BME280;6591;51.446;5.404;2022-07-29T09:22:29;101354.94;;;31.41;37.54
13050;BME280;6591;51.446;5.404;2022-07-29T09:24:57;101347.03;;;31.68;37.60
13050;BME280;6591;51.446;5.404;2022-07-29T09:27:27;101351.59;;;31.96;37.68
13050;BME280;6591;51.446;5.404;2022-07-29T09:30:02;101351.00;;;32.22;36.91
13050;BME280;6591;51.446;5.404;2022-07-29T09:32:29;101349.09;;;32.51;36.86
13050;BME280;6591;51.446;5.404;2022-07-29T09:35:23;101356.31;;;32.79;36.77
13050;BME280;6591;51.446;5.404;2022-07-29T09:37:52;101360.72;;;33.08;35.77
13050;BME280;6591;51.446;5.404;2022-07-29T09:42:50;101354.50;;;33.34;33.79
13050;BME280;6591;51.446;5.404;2022-07-29T09:45:32;101355.13;;;33.30;33.65
13050;BME280;6591;51.446;5.404;2022-07-29T09:48:21;101349.38;;;33.25;33.78
13050;BME280;6591;51.446;5.404;2022-07-29T09:50:50;101343.25;;;33.29;34.16
13050;BME280;6591;51.446;5.404;2022-07-29T09:53:35;101352.41;;;33.36;34.39
13050;BME280;6591;51.446;5.404;2022-07-29T09:56:05;101344.19;;;33.49;33.85
13050;BME280;6591;51.446;5.404;2022-07-29T09:58:32;101345.25;;;33.61;33.33
13050;BME280;6591;51.446;5.404;2022-07-29T10:01:02;101345.25;;;33.61;33.02
13050;BME280;6591;51.446;5.404;2022-07-29T10:03:51;101340.34;;;33.44;31.43
13050;BME280;6591;51.446;5.404;2022-07-29T10:06:18;101343.09;;;33.37;32.41
13050;BME280;6591;51.446;5.404;2022-07-29T10:08:47;101347.09;;;33.28;32.42
13050;BME280;6591;51.446;5.404;2022-07-29T10:11:17;101343.44;;;33.21;32.30
13050;BME280;6591;51.446;5.404;2022-07-29T10:13:46;101342.16;;;33.17;32.45
13050;BME280;6591;51.446;5.404;2022-07-29T10:16:15;101346.34;;;33.13;32.08
13050;BME280;6591;51.446;5.404;2022-07-29T10:18:44;101344.59;;;33.05;31.44
13050;BME280;6591;51.446;5.404;2022-07-29T10:21:12;101355.19;;;33.02;31.78
13050;BME280;6591;51.446;5.404;2022-07-29T10:23:59;101343.94;;;33.03;31.54
13050;BME280;6591;51.446;5.404;2022-07-29T10:26:29;101346.31;;;33.06;32.04
13050;BME280;6591;51.446;5.404;2022-07-29T10:28:56;101345.47;;;33.06;31.88
13050;BME280;6591;51.446;5.404;2022-07-29T10:31:42;101341.38;;;32.95;31.22
13050;BME280;6591;51.446;5.404;2022-07-29T10:34:36;101345.75;;;32.83;31.79
13050;BME280;6591;51.446;5.404;2022-07-29T10:37:46;101335.53;;;32.77;32.02
13050;BME280;6591;51.446;5.404;2022-07-29T10:43:36;101335.34;;;32.78;32.07
13050;BME280;6591;51.446;5.404;2022-07-29T10:46:10;101332.88;;;32.90;31.73
13050;BME280;6591;51.446;5.404;2022-07-29T10:49:13;101327.00;;;33.00;32.24
13050;BME280;6591;51.446;5.404;2022-07-29T10:54:41;101327.63;;;33.43;31.33
13050;BME280;6591;51.446;5.404;2022-07-29T10:57:30;101329.16;;;33.58;31.24
13050;BME280;6591;51.446;5.404;2022-07-29T11:00:29;101333.94;;;33.91;31.07
13050;BME280;6591;51.446;5.404;2022-07-29T11:02:57;101328.81;;;34.14;30.88
13050;BME280;6591;51.446;5.404;2022-07-29T11:05:25;101329.28;;;34.24;30.16
13050;BME280;6591;51.446;5.404;2022-07-29T11:10:48;101336.06;;;34.41;29.96
13050;BME280;6591;51.446;5.404;2022-07-29T11:16:15;101328.00;;;34.47;29.42
13050;BME280;6591;51.446;5.404;2022-07-29T11:19:19;101331.00;;;34.38;28.62
13050;BME280;6591;51.446;5.404;2022-07-29T11:21:56;101328.44;;;34.43;28.73
13050;BME280;6591;51.446;5.404;2022-07-29T11:24:31;101325.03;;;34.41;28.44
13050;BME280;6591;51.446;5.404;2022-07-29T11:27:14;101326.28;;;34.45;29.17
13050;BME280;6591;51.446;5.404;2022-07-29T11:29:58;101329.25;;;34.64;28.83
13050;BME280;6591;51.446;5.404;2022-07-29T11:32:42;101329.44;;;34.82;28.91
13050;BME280;6591;51.446;5.404;2022-07-29T11:35:19;101330.03;;;34.97;27.89
13050;BME280;6591;51.446;5.404;2022-07-29T11:41:27;101335.94;;;35.07;28.36
13050;BME280;6591;51.446;5.404;2022-07-29T11:44:05;101321.44;;;35.32;28.65
13050;BME280;6591;51.446;5.404;2022-07-29T11:46:50;101323.59;;;35.61;27.88
13050;BME280;6591;51.446;5.404;2022-07-29T11:49:25;101320.88;;;35.86;26.88
13050;BME280;6591;51.446;5.404;2022-07-29T11:51:59;101326.16;;;35.94;26.73
13050;BME280;6591;51.446;5.404;2022-07-29T11:54:34;101322.72;;;35.98;27.13
13050;BME280;6591;51.446;5.404;2022-07-29T11:57:22;101328.97;;;36.12;26.78
13050;BME280;6591;51.446;5.404;2022-07-29T12:00:07;101320.84;;;36.24;26.52
13050;BME280;6591;51.446;5.404;2022-07-29T12:02:43;101327.94;;;36.38;26.56
13050;BME280;6591;51.446;5.404;2022-07-29T12:05:15;101322.81;;;36.41;26.31
13050;BME280;6591;51.446;5.404;2022-07-29T12:08:15;101321.56;;;36.37;25.89
13050;BME280;6591;51.446;5.404;2022-07-29T12:10:47;101321.09;;;36.40;25.84
13050;BME280;6591;51.446;5.404;2022-07-29T12:13:18;101325.78;;;36.40;25.46
13050;BME280;6591;51.446;5.404;2022-07-29T12:16:03;101328.41;;;36.35;25.29
13050;BME280;6591;51.446;5.404;2022-07-29T12:18:31;101320.56;;;36.32;25.56
13050;BME280;6591;51.446;5.404;2022-07-29T12:21:01;101328.41;;;36.35;25.23
13050;BME280;6591;51.446;5.404;2022-07-29T12:23:33;101333.88;;;36.41;24.94
13050;BME280;6591;51.446;5.404;2022-07-29T12:26:05;101331.72;;;36.43;24.95
13050;BME280;6591;51.446;5.404;2022-07-29T12:28:39;101324.03;;;36.45;24.67
13050;BME280;6591;51.446;5.404;2022-07-29T12:31:14;101321.06;;;36.47;25.23
13050;BME280;6591;51.446;5.404;2022-07-29T12:34:03;101324.72;;;36.66;24.95
13050;BME280;6591;51.446;5.404;2022-07-29T12:36:30;101316.97;;;36.74;25.04
13050;BME280;6591;51.446;5.404;2022-07-29T12:38:57;101318.94;;;36.85;24.45
13050;BME280;6591;51.446;5.404;2022-07-29T12:41:24;101322.81;;;36.84;24.18
13050;BME280;6591;51.446;5.404;2022-07-29T12:43:54;101328.94;;;36.86;24.67
13050;BME280;6591;51.446;5.404;2022-07-29T12:46:21;101321.03;;;36.90;24.21
13050;BME280;6591;51.446;5.404;2022-07-29T12:48:52;101321.56;;;36.99;23.68
13050;BME280;6591;51.446;5.404;2022-07-29T12:51:54;101327.38;;;37.15;24.36
13050;BME280;6591;51.446;5.404;2022-07-29T12:54:22;101321.97;;;37.20;23.98
13050;BME280;6591;51.446;5.404;2022-07-29T12:56:59;101323.34;;;37.11;23.63
13050;BME280;6591;51.446;5.404;2022-07-29T12:59:26;101317.47;;;37.01;23.46
13050;BME280;6591;51.446;5.404;2022-07-29T13:01:53;101319.09;;;36.90;23.76
13050;BME280;6591;51.446;5.404;2022-07-29T13:04:30;101312.56;;;36.85;23.77
13050;BME280;6591;51.446;5.404;2022-07-29T13:07:06;101317.44;;;36.89;23.72
13050;BME280;6591;51.446;5.404;2022-07-29T13:09:44;101310.16;;;37.07;24.03
13050;BME280;6591;51.446;5.404;2022-07-29T13:12:14;101316.22;;;37.33;24.35
13050;BME280;6591;51.446;5.404;2022-07-29T13:14:43;101314.94;;;37.36;23.46
13050;BME280;6591;51.446;5.404;2022-07-29T13:19:52;101311.41;;;37.29;23.52
13050;BME280;6591;51.446;5.404;2022-07-29T13:22:21;101307.41;;;37.25;23.66
13050;BME280;6591;51.446;5.404;2022-07-29T13:25:01;101318.22;;;37.15;23.39
13050;BME280;6591;51.446;5.404;2022-07-29T13:27:31;101319.19;;;37.20;23.54
13050;BME280;6591;51.446;5.404;2022-07-29T13:30:04;101319.09;;;37.27;23.36
13050;BME280;6591;51.446;5.404;2022-07-29T13:32:33;101313.31;;;37.28;23.01
13050;BME280;6591;51.446;5.404;2022-07-29T13:35:07;101317.41;;;37.26;23.25
13050;BME280;6591;51.446;5.404;2022-07-29T13:37:35;101307.78;;;37.28;23.09
13050;BME280;6591;51.446;5.404;2022-07-29T13:40:30;101310.88;;;37.20;23.13
13050;BME280;6591;51.446;5.404;2022-07-29T13:42:58;101306.56;;;37.24;22.82
13050;BME280;6591;51.446;5.404;2022-07-29T13:45:25;101312.38;;;37.34;23.19
13050;BME280;6591;51.446;5.404;2022-07-29T13:47:55;101307.63;;;37.53;23.58
13050;BME280;6591;51.446;5.404;2022-07-29T13:50:22;101298.25;;;37.84;23.10
13050;BME280;6591;51.446;5.404;2022-07-29T13:52:49;101309.41;;;38.19;22.89
13050;BME280;6591;51.446;5.404;2022-07-29T13:55:17;101307.41;;;38.49;22.80
13050;BME280;6591;51.446;5.404;2022-07-29T13:57:45;101319.81;;;38.70;22.08
13050;BME280;6591;51.446;5.404;2022-07-29T14:00:16;101317.38;;;38.74;21.65
13050;BME280;6591;51.446;5.404;2022-07-29T14:02:43;101316.69;;;38.67;21.58